sensor_id;sensor_type;location;lat;lon;timestamp;pressure;altitude;pressure_sealevel;temperature;humidity
19827;BME280;10074;52.018;4.726;2023-04-27T00:01:35;46343.56;;;-144.79;100.00
19827;BME280;10074;52.018;4.726;2023-04-27T00:06:36;46329.53;;;-144.79;100.00
19827;BME280;10074;52.018;4.726;2023-04-27T00:11:36;46325.53;;;-144.79;100.00
19827;BME280;10074;52.018;4.726;2023-04-27T00:16:36;46337.56;;;-144.79;100.00
19827;BME280;10074;52.018;4.726;2023-04-27T00:21:37;46323.53;;;-144.79;100.00
19827;BME280;10074;52.018;4.726;2023-04-27T00:26:37;46325.53;;;-144.79;100.00
19827;BME280;10074;52.018;4.726;2023-04-27T00:31:37;46287.44;;;-144.79;100.00
19827;BME280;10074;52.018;4.726;2023-04-27T00:36:37;46321.50;;;-144.79;100.00
19827;BME280;10074;52.018;4.726;2023-04-27T00:41:38;46297.44;;;-144.79;100.00
19827;BME280;10074;52.018;4.726;2023-04-27T00:46:38;46317.50;;;-144.79;100.00
19827;BME280;10074;52.018;4.726;2023-04-27T00:51:39;46337.56;;;-144.79;100.00
19827;BME280;10074;52.018;4.726;2023-04-27T00:56:40;46271.38;;;-144.79;100.00
19827;BME280;10074;52.018;4.726;2023-04-27T01:01:41;46271.38;;;-144.79;100.00
19827;BME280;10074;52.018;4.726;2023-04-27T01:06:41;46317.50;;;-144.79;100.00
19827;BME280;10074;52.018;4.726;2023-04-27T01:11:41;46307.47;;;-144.79;100.00
19827;BME280;10074;52.018;4.726;2023-04-27T01:16:41;46313.50;;;-144.79;100.00
19827;BME280;10074;52.018;4.726;2023-04-27T01:21:42;46347.56;;;-144.79;100.00
19827;BME280;10074;52.018;4.726;2023-04-27T01:26:42;46315.50;;;-144.79;100.00
19827;BME280;10074;52.018;4.726;2023-04-27T01:31:43;46295.44;;;-144.79;100.00
19827;BME280;10074;52.018;4.726;2023-04-27T01:36:44;46347.56;;;-144.79;100.00
19827;BME280;10074;52.018;4.726;2023-04-27T01:41:44;46309.47;;;-144.79;100.00
19827;BME280;10074;52.018;4.726;2023-04-27T01:46:45;46315.50;;;-144.79;100.00
19827;BME280;10074;52.018;4.726;2023-04-27T01:51:45;46329.53;;;-144.79;100.00
19827;BME280;10074;52.018;4.726;2023-04-27T01:56:45;46315.50;;;-144.79;100.00
19827;BME280;10074;52.018;4.726;2023-04-27T02:01:45;46289.44;;;-144.79;100.00
19827;BME280;10074;52.018;4.726;2023-04-27T02:06:46;46281.41;;;-144.79;100.00
19827;BME280;10074;52.018;4.726;2023-04-27T02:11:46;46309.47;;;-144.79;100.00
19827;BME280;10074;52.018;4.726;2023-04-27T02:16:46;46315.50;;;-144.79;100.00
19827;BME280;10074;52.018;4.726;2023-04-27T02:21:47;46315.50;;;-144.79;100.00
19827;BME280;10074;52.018;4.726;2023-04-27T02:26:47;46327.53;;;-144.79;100.00
19827;BME280;10074;52.018;4.726;2023-04-27T02:31:47;46327.53;;;-144.79;100.00
19827;BME280;10074;52.018;4.726;2023-04-27T02:36:48;46303.47;;;-144.79;100.00
19827;BME280;10074;52.018;4.726;2023-04-27T02:41:48;46317.50;;;-144.79;100.00
19827;BME280;10074;52.018;4.726;2023-04-27T02:46:49;46321.50;;;-144.79;100.00
19827;BME280;10074;52.018;4.726;2023-04-27T02:51:49;46329.53;;;-144.79;100.00
19827;BME280;10074;52.018;4.726;2023-04-27T02:56:50;46309.47;;;-144.79;100.00
19827;BME280;10074;52.018;4.726;2023-04-27T03:01:50;46323.53;;;-144.79;100.00
19827;BME280;10074;52.018;4.726;2023-04-27T03:06:50;46329.53;;;-144.79;100.00
19827;BME280;10074;52.018;4.726;2023-04-27T03:11:51;46307.47;;;-144.79;100.00
19827;BME280;10074;52.018;4.726;2023-04-27T03:16:51;46323.53;;;-144.79;100.00
19827;BME280;10074;52.018;4.726;2023-04-27T03:21:53;46315.50;;;-144.79;100.00
19827;BME280;10074;52.018;4.726;2023-04-27T03:26:53;46287.44;;;-144.79;100.00
19827;BME280;10074;52.018;4.726;2023-04-27T03:31:53;46297.44;;;-144.79;100.00
19827;BME280;10074;52.018;4.726;2023-04-27T03:36:54;46311.50;;;-144.79;100.00
19827;BME280;10074;52.018;4.726;2023-04-27T03:41:54;46337.56;;;-144.79;100.00
19827;BME280;10074;52.018;4.726;2023-04-27T03:46:54;46299.47;;;-144.79;100.00
19827;BME280;10074;52.018;4.726;2023-04-27T03:51:55;46301.47;;;-144.79;100.00
19827;BME280;10074;52.018;4.726;2023-04-27T03:56:55;46291.44;;;-144.79;100.00
19827;BME280;10074;52.018;4.726;2023-04-27T04:01:55;46317.50;;;-144.79;100.00
19827;BME280;10074;52.018;4.726;2023-04-27T04:06:56;46319.50;;;-144.79;100.00
19827;BME280;10074;52.018;4.726;2023-04-27T04:11:57;46327.53;;;-144.79;100.00
19827;BME280;10074;52.018;4.726;2023-04-27T04:16:57;46307.47;;;-144.79;100.00
19827;BME280;10074;52.018;4.726;2023-04-27T04:21:57;46287.44;;;-144.79;100.00
19827;BME280;10074;52.018;4.726;2023-04-27T04:26:58;46313.50;;;-144.79;100.00
19827;BME280;10074;52.018;4.726;2023-04-27T04:31:58;46327.53;;;-144.79;100.00
19827;BME280;10074;52.018;4.726;2023-04-27T04:36:58;46311.50;;;-144.79;100.00
19827;BME280;10074;52.018;4.726;2023-04-27T04:41:59;46339.56;;;-144.79;100.00
19827;BME280;10074;52.018;4.726;2023-04-27T04:46:59;46311.50;;;-144.79;100.00
19827;BME280;10074;52.018;4.726;2023-04-27T04:51:59;46341.56;;;-144.79;100.00
19827;BME280;10074;52.018;4.726;2023-04-27T04:57:00;46335.53;;;-144.79;100.00
19827;BME280;10074;52.018;4.726;2023-04-27T05:02:02;46337.56;;;-144.79;100.00
19827;BME280;10074;52.018;4.726;2023-04-27T05:07:02;46335.53;;;-144.79;100.00
19827;BME280;10074;52.018;4.726;2023-04-27T05:12:05;46327.53;;;-144.79;100.00
19827;BME280;10074;52.018;4.726;2023-04-27T05:17:06;46347.56;;;-144.79;100.00
19827;BME280;10074;52.018;4.726;2023-04-27T05:22:06;46361.63;;;-144.79;100.00
19827;BME280;10074;52.018;4.726;2023-04-27T05:27:07;46333.53;;;-144.79;100.00
19827;BME280;10074;52.018;4.726;2023-04-27T05:32:07;46337.56;;;-144.79;100.00
19827;BME280;10074;52.018;4.726;2023-04-27T05:37:08;46309.47;;;-144.79;100.00
19827;BME280;10074;52.018;4.726;2023-04-27T05:42:08;46341.56;;;-144.79;100.00
19827;BME280;10074;52.018;4.726;2023-04-27T05:47:09;46327.53;;;-144.79;100.00
19827;BME280;10074;52.018;4.726;2023-04-27T05:52:09;46313.50;;;-144.79;100.00
19827;BME280;10074;52.018;4.726;2023-04-27T05:57:09;46345.56;;;-144.79;100.00
19827;BME280;10074;52.018;4.726;2023-04-27T06:02:10;46345.56;;;-144.79;100.00
19827;BME280;10074;52.018;4.726;2023-04-27T06:07:14;46313.50;;;-144.79;100.00
19827;BME280;10074;52.018;4.726;2023-04-27T06:12:14;46331.53;;;-144.79;100.00
19827;BME280;10074;52.018;4.726;2023-04-27T06:17:15;46307.47;;;-144.79;100.00
19827;BME280;10074;52.018;4.726;2023-04-27T06:22:15;46351.59;;;-144.79;100.00
19827;BME280;10074;52.018;4.726;2023-04-27T06:27:15;46367.63;;;-144.79;100.00
19827;BME280;10074;52.018;4.726;2023-04-27T06:32:15;46303.47;;;-144.79;100.00
19827;BME280;10074;52.018;4.726;2023-04-27T06:37:16;46347.56;;;-144.79;100.00
19827;BME280;10074;52.018;4.726;2023-04-27T06:42:16;46363.63;;;-144.79;100.00
19827;BME280;10074;52.018;4.726;2023-04-27T06:47:16;46351.59;;;-144.79;100.00
19827;BME280;10074;52.018;4.726;2023-04-27T06:52:17;46337.56;;;-144.79;100.00
19827;BME280;10074;52.018;4.726;2023-04-27T06:57:17;46307.47;;;-144.79;100.00
19827;BME280;10074;52.018;4.726;2023-04-27T07:02:17;46345.56;;;-144.79;100.00
19827;BME280;10074;52.018;4.726;2023-04-27T07:07:18;46379.66;;;-144.79;100.00
19827;BME280;10074;52.018;4.726;2023-04-27T07:12:18;46361.63;;;-144.79;100.00
19827;BME280;10074;52.018;4.726;2023-04-27T07:17:18;46323.53;;;-144.79;100.00
19827;BME280;10074;52.018;4.726;2023-04-27T07:22:19;46347.56;;;-144.79;100.00
19827;BME280;10074;52.018;4.726;2023-04-27T07:27:19;46387.69;;;-144.79;100.00
19827;BME280;10074;52.018;4.726;2023-04-27T07:32:20;46367.63;;;-144.79;100.00
19827;BME280;10074;52.018;4.726;2023-04-27T07:37:22;46395.69;;;-144.79;100.00
19827;BME280;10074;52.018;4.726;2023-04-27T07:42:23;46403.72;;;-144.79;100.00
19827;BME280;10074;52.018;4.726;2023-04-27T07:47:24;46395.69;;;-144.79;100.00
19827;BME280;10074;52.018;4.726;2023-04-27T07:52:24;46375.66;;;-144.79;100.00
19827;BME280;10074;52.018;4.726;2023-04-27T07:57:24;46403.72;;;-144.79;100.00
19827;BME280;10074;52.018;4.726;2023-04-27T08:02:28;46403.72;;;-144.79;100.00
19827;BME280;10074;52.018;4.726;2023-04-27T08:07:30;46427.78;;;-144.79;100.00
19827;BME280;10074;52.018;4.726;2023-04-27T08:12:32;46415.75;;;-144.79;100.00
19827;BME280;10074;52.018;4.726;2023-04-27T08:17:32;46497.97;;;-144.79;100.00
19827;BME280;10074;52.018;4.726;2023-04-27T08:22:33;46453.84;;;-144.79;100.00
19827;BME280;10074;52.018;4.726;2023-04-27T08:27:37;46550.09;;;-144.79;100.00
19827;BME280;10074;52.018;4.726;2023-04-27T08:32:38;46588.19;;;-144.79;100.00
19827;BME280;10074;52.018;4.726;2023-04-27T08:37:39;46612.25;;;-144.79;100.00
19827;BME280;10074;52.018;4.726;2023-04-27T08:42:41;46608.25;;;-144.79;100.00
19827;BME280;10074;52.018;4.726;2023-04-27T08:47:52;46628.31;;;-144.79;100.00
19827;BME280;10074;52.018;4.726;2023-04-27T08:52:53;46648.34;;;-144.79;100.00
19827;BME280;10074;52.018;4.726;2023-04-27T08:57:56;46680.44;;;-144.79;100.00
19827;BME280;10074;52.018;4.726;2023-04-27T09:02:57;46682.44;;;-144.79;100.00
19827;BME280;10074;52.018;4.726;2023-04-27T09:08:02;46714.53;;;-144.79;100.00
19827;BME280;10074;52.018;4.726;2023-04-27T09:13:04;46718.53;;;-144.79;100.00
19827;BME280;10074;52.018;4.726;2023-04-27T09:18:05;46732.59;;;-144.79;100.00
19827;BME280;10074;52.018;4.726;2023-04-27T09:23:05;46720.53;;;-144.79;100.00
19827;BME280;10074;52.018;4.726;2023-04-27T09:28:06;46728.56;;;-144.79;100.00
19827;BME280;10074;52.018;4.726;2023-04-27T09:33:07;46732.59;;;-144.79;100.00
19827;BME280;10074;52.018;4.726;2023-04-27T09:38:07;46776.69;;;-144.79;100.00
19827;BME280;10074;52.018;4.726;2023-04-27T09:43:08;46748.63;;;-144.79;100.00
19827;BME280;10074;52.018;4.726;2023-04-27T09:48:10;46780.72;;;-144.79;100.00
19827;BME280;10074;52.018;4.726;2023-04-27T09:53:14;46770.69;;;-144.79;100.00
19827;BME280;10074;52.018;4.726;2023-04-27T10:03:49;46784.72;;;-144.79;100.00
19827;BME280;10074;52.018;4.726;2023-04-27T10:08:55;46784.72;;;-144.79;100.00
19827;BME280;10074;52.018;4.726;2023-04-27T10:13:56;46834.84;;;-144.79;100.00
19827;BME280;10074;52.018;4.726;2023-04-27T10:18:56;46816.81;;;-144.79;100.00
19827;BME280;10074;52.018;4.726;2023-04-27T10:24:08;46802.78;;;-144.79;100.00
19827;BME280;10074;52.018;4.726;2023-04-27T10:29:08;46812.78;;;-144.79;100.00
19827;BME280;10074;52.018;4.726;2023-04-27T10:34:10;46824.81;;;-144.79;100.00
19827;BME280;10074;52.018;4.726;2023-04-27T10:39:19;46816.81;;;-144.79;100.00
19827;BME280;10074;52.018;4.726;2023-04-27T10:44:27;46824.81;;;-144.79;100.00
19827;BME280;10074;52.018;4.726;2023-04-27T10:49:28;46810.78;;;-144.79;100.00
19827;BME280;10074;52.018;4.726;2023-04-27T10:54:29;46792.75;;;-144.79;100.00
19827;BME280;10074;52.018;4.726;2023-04-27T10:59:31;46800.75;;;-144.79;100.00
19827;BME280;10074;52.018;4.726;2023-04-27T11:04:38;46808.78;;;-144.79;100.00
19827;BME280;10074;52.018;4.726;2023-04-27T11:09:41;46792.75;;;-144.79;100.00
19827;BME280;10074;52.018;4.726;2023-04-27T11:14:41;46784.72;;;-144.79;100.00
19827;BME280;10074;52.018;4.726;2023-04-27T11:19:48;46766.66;;;-144.79;100.00
19827;BME280;10074;52.018;4.726;2023-04-27T11:24:49;46792.75;;;-144.79;100.00
19827;BME280;10074;52.018;4.726;2023-04-27T11:29:50;46784.72;;;-144.79;100.00
19827;BME280;10074;52.018;4.726;2023-04-27T11:34:53;46784.72;;;-144.79;100.00
19827;BME280;10074;52.018;4.726;2023-04-27T11:39:54;46764.66;;;-144.79;100.00
19827;BME280;10074;52.018;4.726;2023-04-27T11:44:58;46752.63;;;-144.79;100.00
19827;BME280;10074;52.018;4.726;2023-04-27T11:50:00;46764.66;;;-144.79;100.00
19827;BME280;10074;52.018;4.726;2023-04-27T11:55:02;46744.63;;;-144.79;100.00
19827;BME280;10074;52.018;4.726;2023-04-27T12:00:08;46766.66;;;-144.79;100.00
19827;BME280;10074;52.018;4.726;2023-04-27T12:05:09;46766.66;;;-144.79;100.00
19827;BME280;10074;52.018;4.726;2023-04-27T12:10:11;46770.69;;;-144.79;100.00
19827;BME280;10074;52.018;4.726;2023-04-27T12:15:11;46770.69;;;-144.79;100.00
19827;BME280;10074;52.018;4.726;2023-04-27T12:20:12;46800.75;;;-144.79;100.00
19827;BME280;10074;52.018;4.726;2023-04-27T12:25:13;46782.72;;;-144.79;100.00
19827;BME280;10074;52.018;4.726;2023-04-27T12:30:14;46800.75;;;-144.79;99.76
19827;BME280;10074;52.018;4.726;2023-04-27T12:35:14;46824.81;;;-144.79;99.37
19827;BME280;10074;52.018;4.726;2023-04-27T12:40:15;46836.84;;;-144.79;99.49
19827;BME280;10074;52.018;4.726;2023-04-27T12:45:15;46824.81;;;-144.79;99.18
19827;BME280;10074;52.018;4.726;2023-04-27T12:50:16;46834.84;;;-144.79;99.57
19827;BME280;10074;52.018;4.726;2023-04-27T12:55:16;46820.81;;;-144.79;99.66
19827;BME280;10074;52.018;4.726;2023-04-27T13:00:17;46822.81;;;-144.79;99.27
19827;BME280;10074;52.018;4.726;2023-04-27T13:05:17;46794.75;;;-144.79;99.56
19827;BME280;10074;52.018;4.726;2023-04-27T13:10:17;46808.78;;;-144.79;99.83
19827;BME280;10074;52.018;4.726;2023-04-27T13:15:18;46812.78;;;-144.79;99.60
19827;BME280;10074;52.018;4.726;2023-04-27T13:20:18;46780.72;;;-144.79;99.97
19827;BME280;10074;52.018;4.726;2023-04-27T13:25:19;46776.69;;;-144.79;99.83
19827;BME280;10074;52.018;4.726;2023-04-27T13:30:19;46816.81;;;-144.79;99.91
19827;BME280;10074;52.018;4.726;2023-04-27T13:35:20;46796.75;;;-144.79;100.00
19827;BME280;10074;52.018;4.726;2023-04-27T13:40:20;46780.72;;;-144.79;100.00
19827;BME280;10074;52.018;4.726;2023-04-27T13:45:21;46746.63;;;-144.79;100.00
19827;BME280;10074;52.018;4.726;2023-04-27T13:50:21;46784.72;;;-144.79;100.00
19827;BME280;10074;52.018;4.726;2023-04-27T13:55:21;46764.66;;;-144.79;100.00
19827;BME280;10074;52.018;4.726;2023-04-27T14:00:22;46736.59;;;-144.79;100.00
19827;BME280;10074;52.018;4.726;2023-04-27T14:05:22;46696.47;;;-144.79;100.00
19827;BME280;10074;52.018;4.726;2023-04-27T14:10:22;46716.53;;;-144.79;100.00
19827;BME280;10074;52.018;4.726;2023-04-27T14:15:23;46712.53;;;-144.79;100.00
19827;BME280;10074;52.018;4.726;2023-04-27T14:20:23;46720.53;;;-144.79;100.00
19827;BME280;10074;52.018;4.726;2023-04-27T14:25:23;46708.50;;;-144.79;100.00
19827;BME280;10074;52.018;4.726;2023-04-27T14:30:23;46712.53;;;-144.79;100.00
19827;BME280;10074;52.018;4.726;2023-04-27T14:35:24;46710.53;;;-144.79;100.00
19827;BME280;10074;52.018;4.726;2023-04-27T14:40:24;46752.63;;;-144.79;100.00
19827;BME280;10074;52.018;4.726;2023-04-27T14:45:25;46726.56;;;-144.79;100.00
19827;BME280;10074;52.018;4.726;2023-04-27T14:50:26;46706.50;;;-144.79;100.00
19827;BME280;10074;52.018;4.726;2023-04-27T14:55:27;46714.53;;;-144.79;100.00
19827;BME280;10074;52.018;4.726;2023-04-27T15:00:27;46674.44;;;-144.79;100.00
19827;BME280;10074;52.018;4.726;2023-04-27T15:05:27;46704.50;;;-144.79;100.00
19827;BME280;10074;52.018;4.726;2023-04-27T15:10:28;46684.44;;;-144.79;100.00
19827;BME280;10074;52.018;4.726;2023-04-27T15:15:28;46700.50;;;-144.79;100.00
19827;BME280;10074;52.018;4.726;2023-04-27T15:20:28;46696.47;;;-144.79;100.00
19827;BME280;10074;52.018;4.726;2023-04-27T15:25:28;46708.50;;;-144.79;100.00
19827;BME280;10074;52.018;4.726;2023-04-27T15:30:29;46694.47;;;-144.79;100.00
19827;BME280;10074;52.018;4.726;2023-04-27T15:35:29;46708.50;;;-144.79;100.00
19827;BME280;10074;52.018;4.726;2023-04-27T15:40:29;46708.50;;;-144.79;100.00
19827;BME280;10074;52.018;4.726;2023-04-27T15:45:30;46570.16;;;-144.79;100.00
19827;BME280;10074;52.018;4.726;2023-04-27T15:50:30;46455.84;;;-144.79;100.00
19827;BME280;10074;52.018;4.726;2023-04-27T15:55:31;46383.66;;;-144.79;100.00
19827;BME280;10074;52.018;4.726;2023-04-27T16:00:31;46447.84;;;-144.79;100.00
19827;BME280;10074;52.018;4.726;2023-04-27T16:05:32;46467.88;;;-144.79;100.00
19827;BME280;10074;52.018;4.726;2023-04-27T16:10:32;46508.00;;;-144.79;100.00
19827;BME280;10074;52.018;4.726;2023-04-27T16:15:32;46712.53;;;-144.79;100.00
19827;BME280;10074;52.018;4.726;2023-04-27T16:20:33;46720.53;;;-144.79;100.00
19827;BME280;10074;52.018;4.726;2023-04-27T16:25:33;46762.66;;;-144.79;99.18
19827;BME280;10074;52.018;4.726;2023-04-27T16:30:33;46796.75;;;-144.79;98.40
19827;BME280;10074;52.018;4.726;2023-04-27T16:35:34;46800.75;;;-144.79;97.12
19827;BME280;10074;52.018;4.726;2023-04-27T16:40:34;46808.78;;;-144.79;96.18
19827;BME280;10074;52.018;4.726;2023-04-27T16:45:34;46802.78;;;-144.79;95.02
19827;BME280;10074;52.018;4.726;2023-04-27T16:50:35;46810.78;;;-144.79;94.51
19827;BME280;10074;52.018;4.726;2023-04-27T16:55:35;46816.81;;;-144.79;94.34
19827;BME280;10074;52.018;4.726;2023-04-27T17:00:36;46840.88;;;-144.79;94.00
19827;BME280;10074;52.018;4.726;2023-04-27T17:05:37;46824.81;;;-144.79;94.13
19827;BME280;10074;52.018;4.726;2023-04-27T17:10:37;46812.78;;;-144.79;94.00
19827;BME280;10074;52.018;4.726;2023-04-27T17:15:37;46836.84;;;-144.79;93.77
19827;BME280;10074;52.018;4.726;2023-04-27T17:20:38;46822.81;;;-144.79;93.77
19827;BME280;10074;52.018;4.726;2023-04-27T17:25:38;46832.84;;;-144.79;94.07
19827;BME280;10074;52.018;4.726;2023-04-27T17:30:38;46822.81;;;-144.79;93.64
19827;BME280;10074;52.018;4.726;2023-04-27T17:35:40;46842.88;;;-144.79;94.44
19827;BME280;10074;52.018;4.726;2023-04-27T17:40:43;46838.88;;;-144.79;93.40
19827;BME280;10074;52.018;4.726;2023-04-27T17:45:43;46840.88;;;-144.79;93.90
19827;BME280;10074;52.018;4.726;2023-04-27T17:50:44;46844.88;;;-144.79;94.15
19827;BME280;10074;52.018;4.726;2023-04-27T17:55:44;46836.84;;;-144.79;93.87
19827;BME280;10074;52.018;4.726;2023-04-27T18:00:44;46820.81;;;-144.79;94.54
19827;BME280;10074;52.018;4.726;2023-04-27T18:05:45;46836.84;;;-144.79;94.42
19827;BME280;10074;52.018;4.726;2023-04-27T18:10:45;46830.84;;;-144.79;94.57
19827;BME280;10074;52.018;4.726;2023-04-27T18:15:45;46830.84;;;-144.79;94.50
19827;BME280;10074;52.018;4.726;2023-04-27T18:20:46;46816.81;;;-144.79;94.45
19827;BME280;10074;52.018;4.726;2023-04-27T18:25:47;46816.81;;;-144.79;94.52
19827;BME280;10074;52.018;4.726;2023-04-27T18:30:47;46816.81;;;-144.79;94.63
19827;BME280;10074;52.018;4.726;2023-04-27T18:35:49;46816.81;;;-144.79;94.83
19827;BME280;10074;52.018;4.726;2023-04-27T18:40:49;46818.81;;;-144.79;94.66
19827;BME280;10074;52.018;4.726;2023-04-27T18:45:49;46806.78;;;-144.79;95.13
19827;BME280;10074;52.018;4.726;2023-04-27T18:50:50;46814.81;;;-144.79;95.40
19827;BME280;10074;52.018;4.726;2023-04-27T18:55:50;46806.78;;;-144.79;95.32
19827;BME280;10074;52.018;4.726;2023-04-27T19:00:51;46804.78;;;-144.79;95.96
19827;BME280;10074;52.018;4.726;2023-04-27T19:05:51;46802.78;;;-144.79;95.97
19827;BME280;10074;52.018;4.726;2023-04-27T19:10:51;46802.78;;;-144.79;95.97
19827;BME280;10074;52.018;4.726;2023-04-27T19:15:52;46808.78;;;-144.79;95.68
19827;BME280;10074;52.018;4.726;2023-04-27T19:20:52;46804.78;;;-144.79;95.82
19827;BME280;10074;52.018;4.726;2023-04-27T19:25:52;46808.78;;;-144.79;95.81
19827;BME280;10074;52.018;4.726;2023-04-27T19:30:52;46788.72;;;-144.79;95.88
19827;BME280;10074;52.018;4.726;2023-04-27T19:35:53;46792.75;;;-144.79;95.96
19827;BME280;10074;52.018;4.726;2023-04-27T19:40:53;46812.78;;;-144.79;96.00
19827;BME280;10074;52.018;4.726;2023-04-27T19:45:53;46782.72;;;-144.79;96.03
19827;BME280;10074;52.018;4.726;2023-04-27T19:50:54;46800.75;;;-144.79;95.99
19827;BME280;10074;52.018;4.726;2023-04-27T19:55:54;46808.78;;;-144.79;96.27
19827;BME280;10074;52.018;4.726;2023-04-27T20:00:54;46810.78;;;-144.79;96.36
19827;BME280;10074;52.018;4.726;2023-04-27T20:05:55;46804.78;;;-144.79;96.64
19827;BME280;10074;52.018;4.726;2023-04-27T20:10:55;46774.69;;;-144.79;96.91
19827;BME280;10074;52.018;4.726;2023-04-27T20:15:55;46768.69;;;-144.79;97.10
19827;BME280;10074;52.018;4.726;2023-04-27T20:20:57;46742.59;;;-144.79;97.92
19827;BME280;10074;52.018;4.726;2023-04-27T20:25:58;46768.69;;;-144.79;98.33
19827;BME280;10074;52.018;4.726;2023-04-27T20:30:58;46708.50;;;-144.79;99.33
19827;BME280;10074;52.018;4.726;2023-04-27T20:35:59;46664.41;;;-144.79;100.00
19827;BME280;10074;52.018;4.726;2023-04-27T20:41:00;46608.25;;;-144.79;100.00
19827;BME280;10074;52.018;4.726;2023-04-27T20:46:00;46550.09;;;-144.79;100.00
19827;BME280;10074;52.018;4.726;2023-04-27T20:51:01;46562.13;;;-144.79;100.00
19827;BME280;10074;52.018;4.726;2023-04-27T20:56:01;46491.94;;;-144.79;100.00
19827;BME280;10074;52.018;4.726;2023-04-27T21:01:01;46443.81;;;-144.79;100.00
19827;BME280;10074;52.018;4.726;2023-04-27T21:06:02;46401.72;;;-144.79;100.00
19827;BME280;10074;52.018;4.726;2023-04-27T21:11:02;46379.66;;;-144.79;100.00
19827;BME280;10074;52.018;4.726;2023-04-27T21:16:03;46359.59;;;-144.79;100.00
19827;BME280;10074;52.018;4.726;2023-04-27T21:21:03;46351.59;;;-144.79;100.00
19827;BME280;10074;52.018;4.726;2023-04-27T21:26:06;46335.53;;;-144.79;100.00
19827;BME280;10074;52.018;4.726;2023-04-27T21:31:06;46337.56;;;-144.79;100.00
19827;BME280;10074;52.018;4.726;2023-04-27T21:36:06;46319.50;;;-144.79;100.00
19827;BME280;10074;52.018;4.726;2023-04-27T21:41:07;46267.38;;;-144.79;100.00
19827;BME280;10074;52.018;4.726;2023-04-27T21:46:08;46297.44;;;-144.79;100.00
19827;BME280;10074;52.018;4.726;2023-04-27T21:51:08;46291.44;;;-144.79;100.00
19827;BME280;10074;52.018;4.726;2023-04-27T21:56:08;46281.41;;;-144.79;100.00
19827;BME280;10074;52.018;4.726;2023-04-27T22:01:09;46267.38;;;-144.79;100.00
19827;BME280;10074;52.018;4.726;2023-04-27T22:06:10;46269.38;;;-144.79;100.00
19827;BME280;10074;52.018;4.726;2023-04-27T22:11:10;46257.34;;;-144.79;100.00
19827;BME280;10074;52.018;4.726;2023-04-27T22:16:11;46239.31;;;-144.79;100.00
19827;BME280;10074;52.018;4.726;2023-04-27T22:21:11;46211.22;;;-144.79;100.00
19827;BME280;10074;52.018;4.726;2023-04-27T22:26:11;46219.25;;;-144.79;100.00
19827;BME280;10074;52.018;4.726;2023-04-27T22:31:12;46209.22;;;-144.79;100.00
19827;BME280;10074;52.018;4.726;2023-04-27T22:36:13;46227.28;;;-144.79;100.00
19827;BME280;10074;52.018;4.726;2023-04-27T22:41:13;46223.25;;;-144.79;100.00
19827;BME280;10074;52.018;4.726;2023-04-27T22:46:13;46245.31;;;-144.79;100.00
19827;BME280;10074;52.018;4.726;2023-04-27T22:51:14;46211.22;;;-144.79;100.00
19827;BME280;10074;52.018;4.726;2023-04-27T22:56:15;46217.25;;;-144.79;100.00
19827;BME280;10074;52.018;4.726;2023-04-27T23:01:15;46261.34;;;-144.79;100.00
19827;BME280;10074;52.018;4.726;2023-04-27T23:06:16;46247.31;;;-144.79;100.00
19827;BME280;10074;52.018;4.726;2023-04-27T23:11:16;46225.28;;;-144.79;100.00
19827;BME280;10074;52.018;4.726;2023-04-27T23:16:17;46195.19;;;-144.79;100.00
19827;BME280;10074;52.018;4.726;2023-04-27T23:21:18;46243.31;;;-144.79;100.00
19827;BME280;10074;52.018;4.726;2023-04-27T23:26:18;46225.28;;;-144.79;100.00
19827;BME280;10074;52.018;4.726;2023-04-27T23:31:22;46241.31;;;-144.79;100.00
19827;BME280;10074;52.018;4.726;2023-04-27T23:36:22;46255.34;;;-144.79;100.00
19827;BME280;10074;52.018;4.726;2023-04-27T23:41:22;46225.28;;;-144.79;100.00
19827;BME280;10074;52.018;4.726;2023-04-27T23:46:23;46225.28;;;-144.79;100.00
19827;BME280;10074;52.018;4.726;2023-04-27T23:51:23;46243.31;;;-144.79;100.00
19827;BME280;10074;52.018;4.726;2023-04-27T23:56:24;46239.31;;;-144.79;100.00
